Time;durP1;ratioP1;P1;durP2;ratioP2;P2;SDS_P1;SDS_P2;PMS_P1;PMS_P2;Temp;Humidity;BMP_temperature;BMP_pressure;BME280_temperature;BME280_humidity;BME280_pressure;Samples;Min_cycle;Max_cycle;Signal;HPM_P1;HPM_P2
2023/06/17 02:01:28;;;;;;;9.77;8.38;;;;;;;;;;4693069;27;20230;-81
2023/06/17 02:03:55;;;;;;;14.43;8.80;;;;;;;;;;4339913;33;20058;-80
2023/06/17 02:06:21;;;;;;;12.40;8.55;;;;;;;;;;4337523;33;20115;-80
2023/06/17 02:08:48;;;;;;;12.57;8.93;;;;;;;;;;4338159;33;20153;-79
2023/06/17 02:11:15;;;;;;;14.18;9.00;;;;;;;;;;4331396;33;20066;-81
2023/06/17 02:13:41;;;;;;;12.20;8.60;;;;;;;;;;4336675;33;20085;-80
2023/06/17 02:16:07;;;;;;;10.35;8.48;;;;;;;;;;4337411;33;20052;-80
2023/06/17 02:18:34;;;;;;;11.10;8.30;;;;;;;;;;4337728;33;20067;-79
2023/06/17 02:21:01;;;;;;;10.93;8.43;;;;;;;;;;4337458;33;20036;-80
2023/06/17 02:23:29;;;;;;;14.38;8.32;;;;;;;;;;4321262;33;20175;-79
2023/06/17 02:25:56;;;;;;;16.80;8.30;;;;;;;;;;4322863;33;20475;-79
2023/06/17 02:28:25;;;;;;;13.62;8.85;;;;;;;;;;4323208;33;20043;-80
2023/06/17 02:30:51;;;;;;;10.05;7.95;;;;;;;;;;4322002;33;20172;-80
2023/06/17 02:33:18;;;;;;;19.30;9.98;;;;;;;;;;4321659;33;20096;-79
2023/06/17 02:35:45;;;;;;;10.50;8.68;;;;;;;;;;4308234;33;20056;-79
2023/06/17 02:38:13;;;;;;;18.42;9.07;;;;;;;;;;4319075;33;20058;-80
2023/06/17 02:40:39;;;;;;;14.30;9.27;;;;;;;;;;4310463;33;20893;-80
2023/06/17 02:43:08;;;;;;;18.15;9.73;;;;;;;;;;4308952;33;20063;-79
2023/06/17 02:45:35;;;;;;;12.27;9.75;;;;;;;;;;4292070;33;20352;-79
2023/06/17 02:48:02;;;;;;;15.70;9.75;;;;;;;;;;4293584;33;20052;-79
2023/06/17 02:50:29;;;;;;;12.52;8.85;;;;;;;;;;4293266;33;20049;-79
2023/06/17 02:52:57;;;;;;;21.67;8.75;;;;;;;;;;4283981;33;20072;-80
2023/06/17 02:55:27;;;;;;;15.60;9.70;;;;;;;;;;4277196;33;20049;-82
2023/06/17 02:57:53;;;;;;;17.73;9.88;;;;;;;;;;4305998;33;20044;-77
2023/06/17 03:00:20;;;;;;;13.75;10.35;;;;;;;;;;4313240;33;20066;-78
2023/06/17 03:02:47;;;;;;;15.65;10.07;;;;;;;;;;4318070;33;20089;-78
2023/06/17 03:05:14;;;;;;;11.43;8.95;;;;;;;;;;4320594;33;20115;-77
2023/06/17 03:07:40;;;;;;;21.70;10.30;;;;;;;;;;4315650;33;20164;-81
2023/06/17 03:10:07;;;;;;;17.65;10.60;;;;;;;;;;4296804;33;20071;-78
2023/06/17 03:12:36;;;;;;;18.75;9.95;;;;;;;;;;4299816;33;20062;-77
2023/06/17 03:15:02;;;;;;;16.55;10.23;;;;;;;;;;4306204;33;20029;-78
2023/06/17 03:17:29;;;;;;;13.15;9.85;;;;;;;;;;4320105;33;20058;-78
2023/06/17 03:19:56;;;;;;;13.23;10.68;;;;;;;;;;4320243;33;20040;-81
2023/06/17 03:22:23;;;;;;;14.15;9.63;;;;;;;;;;4322196;33;20052;-79
2023/06/17 03:24:49;;;;;;;15.18;9.65;;;;;;;;;;4322114;33;20040;-78
2023/06/17 03:27:15;;;;;;;11.63;9.52;;;;;;;;;;4320223;33;20110;-80
2023/06/17 03:29:41;;;;;;;12.63;9.48;;;;;;;;;;4295808;33;20506;-79
2023/06/17 03:32:09;;;;;;;13.30;10.90;;;;;;;;;;4275713;33;20785;-82
2023/06/17 03:34:35;;;;;;;12.05;9.57;;;;;;;;;;4278961;33;20984;-81
2023/06/17 03:37:03;;;;;;;16.23;10.43;;;;;;;;;;4307220;33;20117;-79
2023/06/17 03:39:29;;;;;;;13.50;10.27;;;;;;;;;;4306291;33;20033;-79
2023/06/17 03:41:55;;;;;;;16.83;11.18;;;;;;;;;;4307520;33;20846;-81
2023/06/17 03:44:21;;;;;;;13.45;10.15;;;;;;;;;;4305921;33;20112;-78
2023/06/17 03:46:48;;;;;;;19.52;10.43;;;;;;;;;;4324171;33;20048;-78
2023/06/17 03:49:14;;;;;;;20.17;11.32;;;;;;;;;;4337279;33;20035;-77
2023/06/17 03:51:40;;;;;;;18.25;9.48;;;;;;;;;;4336163;33;20056;-81
2023/06/17 03:54:06;;;;;;;19.10;10.20;;;;;;;;;;4336846;33;20210;-79
2023/06/17 03:56:33;;;;;;;17.85;10.07;;;;;;;;;;4318195;33;20066;-80
2023/06/17 03:59:00;;;;;;;18.87;9.98;;;;;;;;;;4314577;33;20459;-81
2023/06/17 04:01:26;;;;;;;16.67;9.57;;;;;;;;;;4307791;33;20056;-81
2023/06/17 04:03:52;;;;;;;12.95;9.60;;;;;;;;;;4315315;33;20048;-81
2023/06/17 04:06:19;;;;;;;16.55;10.35;;;;;;;;;;4307154;33;20085;-82
2023/06/17 04:08:46;;;;;;;13.20;10.10;;;;;;;;;;4306112;33;20041;-82
2023/06/17 04:11:14;;;;;;;14.85;9.50;;;;;;;;;;4307448;33;20053;-81
2023/06/17 04:13:40;;;;;;;18.25;11.05;;;;;;;;;;4307637;33;20067;-81
2023/06/17 04:16:07;;;;;;;18.65;10.30;;;;;;;;;;4310141;33;20502;-81
2023/06/17 04:18:33;;;;;;;14.82;9.90;;;;;;;;;;4308503;33;20075;-81
2023/06/17 04:21:00;;;;;;;14.77;10.27;;;;;;;;;;4309396;33;20191;-80
2023/06/17 04:23:26;;;;;;;18.45;11.32;;;;;;;;;;4310729;33;20028;-81
2023/06/17 04:25:56;;;;;;;16.90;10.52;;;;;;;;;;4310169;33;20362;-81
2023/06/17 04:28:23;;;;;;;20.75;11.52;;;;;;;;;;4321571;33;20785;-80
2023/06/17 04:30:51;;;;;;;15.23;11.38;;;;;;;;;;4310087;33;20104;-81
2023/06/17 04:33:18;;;;;;;15.98;11.95;;;;;;;;;;4319051;33;20048;-81
2023/06/17 04:35:47;;;;;;;15.85;9.95;;;;;;;;;;4322220;33;20052;-81
2023/06/17 04:38:13;;;;;;;16.02;10.35;;;;;;;;;;4323096;33;20431;-81
2023/06/17 04:40:40;;;;;;;18.35;10.93;;;;;;;;;;4306792;33;20465;-80
2023/06/17 04:43:09;;;;;;;17.70;12.20;;;;;;;;;;4309741;33;20041;-81
2023/06/17 04:45:36;;;;;;;19.48;11.57;;;;;;;;;;4309975;33;20094;-80
2023/06/17 04:48:05;;;;;;;15.85;10.82;;;;;;;;;;4307789;33;20063;-82
2023/06/17 04:50:33;;;;;;;13.80;10.82;;;;;;;;;;4308791;33;20335;-81
2023/06/17 04:53:05;;;;;;;16.17;10.75;;;;;;;;;;4321892;33;20041;-80
2023/06/17 04:55:35;;;;;;;15.57;11.40;;;;;;;;;;4324329;33;20044;-77
2023/06/17 04:58:04;;;;;;;14.38;11.00;;;;;;;;;;4323429;33;20056;-79
2023/06/17 05:00:31;;;;;;;20.90;11.25;;;;;;;;;;4299978;33;20125;-80
2023/06/17 05:02:58;;;;;;;14.55;10.75;;;;;;;;;;4306653;33;20083;-79
2023/06/17 05:05:25;;;;;;;14.60;10.82;;;;;;;;;;4309481;33;20443;-81
2023/06/17 05:07:51;;;;;;;16.92;10.82;;;;;;;;;;4309490;33;20216;-79
2023/06/17 05:10:18;;;;;;;13.75;10.93;;;;;;;;;;4309455;33;20117;-85
2023/06/17 05:12:44;;;;;;;14.27;10.48;;;;;;;;;;4334487;32;20039;-82
2023/06/17 05:15:11;;;;;;;19.08;11.70;;;;;;;;;;4338785;33;20295;-85
2023/06/17 05:17:37;;;;;;;15.75;11.45;;;;;;;;;;4337374;33;20096;-81
2023/06/17 05:20:04;;;;;;;17.17;11.60;;;;;;;;;;4337060;32;20107;-85
2023/06/17 05:22:30;;;;;;;14.95;11.12;;;;;;;;;;4329489;32;20036;-80
2023/06/17 05:24:57;;;;;;;12.88;11.18;;;;;;;;;;4331086;33;20099;-81
2023/06/17 05:27:23;;;;;;;14.20;11.35;;;;;;;;;;4323974;33;20040;-83
2023/06/17 05:29:50;;;;;;;16.10;11.35;;;;;;;;;;4307496;33;20344;-78
2023/06/17 05:32:17;;;;;;;16.83;11.20;;;;;;;;;;4282473;33;20226;-81
2023/06/17 05:34:44;;;;;;;15.20;11.40;;;;;;;;;;4280375;33;20071;-80
2023/06/17 05:37:10;;;;;;;13.90;11.35;;;;;;;;;;4279607;33;20053;-82
2023/06/17 05:39:37;;;;;;;17.17;12.10;;;;;;;;;;4280953;33;20110;-81
2023/06/17 05:42:03;;;;;;;16.20;12.07;;;;;;;;;;4288044;33;20424;-80
2023/06/17 05:44:29;;;;;;;18.12;12.05;;;;;;;;;;4303893;33;20455;-82
2023/06/17 05:46:56;;;;;;;21.77;12.23;;;;;;;;;;4278110;33;20042;-80
2023/06/17 05:49:22;;;;;;;17.83;11.70;;;;;;;;;;4267118;33;20113;-79
2023/06/17 05:51:49;;;;;;;17.75;12.32;;;;;;;;;;4264823;33;20042;-79
2023/06/17 05:54:15;;;;;;;21.77;13.02;;;;;;;;;;4265900;33;20056;-79
2023/06/17 05:56:42;;;;;;;15.02;11.73;;;;;;;;;;4263487;33;20056;-79
2023/06/17 05:59:08;;;;;;;23.12;12.73;;;;;;;;;;4276842;33;20054;-80
2023/06/17 06:01:36;;;;;;;16.33;12.50;;;;;;;;;;4278200;33;20082;-79
2023/06/17 06:04:02;;;;;;;19.77;13.35;;;;;;;;;;4280262;33;20033;-80
2023/06/17 06:06:29;;;;;;;15.38;12.60;;;;;;;;;;4278786;33;20525;-80
2023/06/17 06:08:55;;;;;;;18.30;11.98;;;;;;;;;;4278847;33;20059;-82
2023/06/17 06:11:28;;;;;;;21.90;12.57;;;;;;;;;;4265348;33;20060;-78
2023/06/17 06:13:55;;;;;;;18.50;12.80;;;;;;;;;;4266016;33;20062;-80
2023/06/17 06:16:22;;;;;;;18.02;11.73;;;;;;;;;;4251489;33;20034;-80
2023/06/17 06:18:48;;;;;;;19.73;12.93;;;;;;;;;;4249673;33;20075;-81
2023/06/17 06:21:14;;;;;;;14.85;12.80;;;;;;;;;;4252045;33;20687;-80
2023/06/17 06:23:41;;;;;;;17.33;13.48;;;;;;;;;;4249583;33;20062;-80
2023/06/17 06:26:07;;;;;;;18.35;13.07;;;;;;;;;;4250892;33;20081;-81
2023/06/17 06:28:33;;;;;;;31.55;14.70;;;;;;;;;;4249920;33;20060;-79
2023/06/17 06:31:07;;;;;;;18.70;13.77;;;;;;;;;;4248984;33;20119;-80
2023/06/17 06:33:35;;;;;;;17.08;13.50;;;;;;;;;;4250077;33;20061;-81
2023/06/17 06:36:02;;;;;;;20.48;12.73;;;;;;;;;;4262356;33;20071;-80
2023/06/17 06:38:28;;;;;;;17.25;12.30;;;;;;;;;;4263738;33;20053;-83
2023/06/17 06:40:54;;;;;;;16.95;13.62;;;;;;;;;;4263636;33;20033;-83
2023/06/17 06:43:23;;;;;;;17.12;12.73;;;;;;;;;;4253533;33;20057;-80
2023/06/17 06:45:57;;;;;;;18.52;12.02;;;;;;;;;;4250316;33;20058;-81
2023/06/17 06:48:25;;;;;;;15.93;12.07;;;;;;;;;;4288249;33;20075;-80
2023/06/17 06:50:51;;;;;;;20.95;13.02;;;;;;;;;;4328641;33;20065;-80
2023/06/17 06:55:57;;;;;;;18.08;12.30;;;;;;;;;;4296438;33;20125;-80
2023/06/17 06:58:24;;;;;;;20.20;13.30;;;;;;;;;;4297590;33;20418;-79
2023/06/17 07:00:51;;;;;;;15.63;11.75;;;;;;;;;;4293701;33;20460;-80
2023/06/17 07:03:18;;;;;;;15.30;11.93;;;;;;;;;;4315208;33;20805;-83
2023/06/17 07:05:44;;;;;;;17.77;12.40;;;;;;;;;;4310433;33;20540;-80
2023/06/17 07:08:11;;;;;;;16.77;12.43;;;;;;;;;;4256755;33;20123;-84
2023/06/17 07:10:39;;;;;;;17.42;11.38;;;;;;;;;;4304085;33;20040;-81
2023/06/17 07:13:06;;;;;;;16.52;12.85;;;;;;;;;;4303671;33;20092;-79
2023/06/17 07:15:32;;;;;;;18.75;13.43;;;;;;;;;;4279194;33;20959;-81
2023/06/17 07:17:59;;;;;;;18.02;13.43;;;;;;;;;;4282688;33;20064;-80
2023/06/17 07:20:25;;;;;;;21.30;13.82;;;;;;;;;;4281966;33;20220;-81
2023/06/17 07:22:51;;;;;;;18.20;14.73;;;;;;;;;;4287500;33;20463;-81
2023/06/17 07:25:18;;;;;;;15.57;12.63;;;;;;;;;;4308235;33;20824;-81
2023/06/17 07:27:44;;;;;;;19.30;13.10;;;;;;;;;;4314822;33;20079;-84
2023/06/17 07:30:11;;;;;;;16.73;12.93;;;;;;;;;;4288115;33;20576;-78
2023/06/17 07:32:37;;;;;;;16.62;13.32;;;;;;;;;;4291868;33;20484;-79
2023/06/17 07:35:03;;;;;;;20.92;12.90;;;;;;;;;;4259150;33;20051;-79
2023/06/17 07:37:30;;;;;;;29.92;13.45;;;;;;;;;;4260724;33;20344;-80
2023/06/17 07:39:56;;;;;;;16.25;11.30;;;;;;;;;;4255309;33;20119;-81
2023/06/17 07:42:22;;;;;;;13.65;11.27;;;;;;;;;;4258720;33;20053;-78
2023/06/17 07:44:48;;;;;;;21.83;12.27;;;;;;;;;;4263354;33;20523;-79
2023/06/17 07:47:15;;;;;;;17.42;10.73;;;;;;;;;;4263268;33;20420;-79
2023/06/17 07:49:41;;;;;;;13.93;11.10;;;;;;;;;;4252188;33;20784;-84
2023/06/17 07:52:07;;;;;;;10.40;8.73;;;;;;;;;;4255237;33;20140;-79
2023/06/17 07:54:36;;;;;;;18.30;9.80;;;;;;;;;;4257696;33;20604;-83
2023/06/17 07:57:03;;;;;;;15.02;11.48;;;;;;;;;;4265067;33;20403;-81
2023/06/17 07:59:29;;;;;;;11.68;9.18;;;;;;;;;;4258507;33;20035;-79
2023/06/17 08:01:56;;;;;;;9.73;8.60;;;;;;;;;;4261473;33;20045;-81
2023/06/17 08:04:22;;;;;;;15.70;9.68;;;;;;;;;;4263046;33;20058;-79
2023/06/17 08:06:49;;;;;;;12.37;9.73;;;;;;;;;;4285994;33;20053;-80
2023/06/17 08:09:15;;;;;;;10.15;8.63;;;;;;;;;;4310479;33;20070;-82
2023/06/17 08:11:41;;;;;;;9.27;8.30;;;;;;;;;;4309281;33;20530;-82
2023/06/17 08:14:07;;;;;;;10.55;9.27;;;;;;;;;;4308991;33;20044;-80
2023/06/17 08:16:33;;;;;;;15.25;8.60;;;;;;;;;;4309313;33;20981;-78
2023/06/17 08:19:00;;;;;;;10.93;8.85;;;;;;;;;;4310277;33;20082;-79
2023/06/17 08:21:26;;;;;;;11.10;8.75;;;;;;;;;;4309048;33;20066;-81
2023/06/17 08:23:52;;;;;;;11.95;8.98;;;;;;;;;;4280893;33;20165;-82
2023/06/17 08:26:18;;;;;;;11.77;7.87;;;;;;;;;;4278668;33;20082;-83
2023/06/17 08:28:45;;;;;;;10.13;7.28;;;;;;;;;;4280010;33;20054;-82
2023/06/17 08:31:11;;;;;;;9.30;6.93;;;;;;;;;;4278535;33;20053;-83
2023/06/17 08:33:38;;;;;;;11.82;7.32;;;;;;;;;;4268049;33;20046;-81
2023/06/17 08:36:04;;;;;;;8.50;6.90;;;;;;;;;;4274171;33;20458;-86
2023/06/17 08:38:30;;;;;;;8.57;6.78;;;;;;;;;;4279827;33;20048;-81
2023/06/17 08:40:57;;;;;;;10.20;7.97;;;;;;;;;;4292889;33;20118;-81
2023/06/17 08:43:25;;;;;;;11.85;8.25;;;;;;;;;;4290054;33;20124;-83
2023/06/17 08:45:53;;;;;;;9.32;6.43;;;;;;;;;;4299670;33;20059;-86
2023/06/17 08:48:20;;;;;;;10.15;8.80;;;;;;;;;;4283968;33;20053;-77
2023/06/17 08:50:48;;;;;;;14.32;7.50;;;;;;;;;;4279929;33;20092;-84
2023/06/17 08:53:15;;;;;;;10.57;7.35;;;;;;;;;;4280475;33;20057;-82
2023/06/17 08:55:42;;;;;;;11.95;7.75;;;;;;;;;;4284538;33;20130;-83
2023/06/17 08:58:08;;;;;;;17.42;7.18;;;;;;;;;;4302193;33;20037;-87
2023/06/17 09:00:35;;;;;;;11.52;6.37;;;;;;;;;;4261752;33;20079;-78
2023/06/17 09:03:03;;;;;;;8.23;7.03;;;;;;;;;;4230364;33;20486;-82
2023/06/17 09:05:30;;;;;;;8.45;6.60;;;;;;;;;;4226601;33;20126;-78
2023/06/17 09:07:56;;;;;;;8.68;6.62;;;;;;;;;;4210121;33;20031;-84
2023/06/17 09:10:22;;;;;;;10.57;7.07;;;;;;;;;;4195661;34;20047;-87
2023/06/17 09:12:48;;;;;;;7.45;6.57;;;;;;;;;;4204436;34;20380;-87
2023/06/17 09:15:15;;;;;;;9.25;7.05;;;;;;;;;;4208891;34;20060;-85
2023/06/17 09:17:42;;;;;;;11.65;7.80;;;;;;;;;;4216550;33;20090;-83
2023/06/17 09:20:13;;;;;;;10.52;6.60;;;;;;;;;;4214693;33;20063;-84
2023/06/17 09:22:43;;;;;;;7.18;6.47;;;;;;;;;;4225125;33;20077;-81
2023/06/17 09:25:14;;;;;;;9.73;5.67;;;;;;;;;;4228636;33;20043;-86
2023/06/17 09:27:44;;;;;;;9.15;6.43;;;;;;;;;;4261825;33;20462;-86
2023/06/17 09:30:11;;;;;;;6.70;5.97;;;;;;;;;;4251731;33;20231;-80
2023/06/17 09:32:39;;;;;;;7.95;6.15;;;;;;;;;;4250474;33;20747;-78
2023/06/17 09:35:14;;;;;;;6.65;5.95;;;;;;;;;;4250416;33;20084;-82
2023/06/17 09:37:44;;;;;;;16.90;6.68;;;;;;;;;;4252285;33;20037;-84
2023/06/17 09:40:11;;;;;;;8.57;5.43;;;;;;;;;;4262019;33;20057;-86
2023/06/17 09:42:37;;;;;;;8.27;5.78;;;;;;;;;;4278124;33;20063;-79
2023/06/17 09:45:11;;;;;;;6.57;5.68;;;;;;;;;;4278692;33;20081;-82
2023/06/17 09:47:37;;;;;;;6.30;5.30;;;;;;;;;;4292316;33;20318;-79
2023/06/17 09:50:04;;;;;;;9.63;5.75;;;;;;;;;;4308144;33;20066;-80
2023/06/17 09:52:31;;;;;;;5.62;4.97;;;;;;;;;;4307546;33;20042;-78
2023/06/17 09:55:02;;;;;;;8.40;5.65;;;;;;;;;;4322109;33;20405;-78
2023/06/17 09:57:32;;;;;;;8.23;6.07;;;;;;;;;;4291384;33;20450;-81
2023/06/17 10:00:09;;;;;;;12.15;5.05;;;;;;;;;;4276527;33;20139;-79
2023/06/17 10:02:38;;;;;;;11.35;5.68;;;;;;;;;;4285670;33;20052;-79
2023/06/17 10:05:07;;;;;;;5.20;4.70;;;;;;;;;;4289316;33;20100;-81
2023/06/17 10:07:34;;;;;;;7.65;5.72;;;;;;;;;;4291515;33;20067;-80
2023/06/17 10:10:02;;;;;;;7.60;5.43;;;;;;;;;;4290402;33;20971;-80
2023/06/17 10:12:29;;;;;;;5.75;4.82;;;;;;;;;;4288752;33;20044;-80
2023/06/17 10:14:56;;;;;;;6.95;4.78;;;;;;;;;;4291692;33;20056;-80
2023/06/17 10:17:22;;;;;;;6.93;4.95;;;;;;;;;;4290490;33;20041;-81
2023/06/17 10:19:50;;;;;;;7.07;5.50;;;;;;;;;;4307867;33;20477;-79
2023/06/17 10:22:19;;;;;;;6.55;4.97;;;;;;;;;;4291950;33;20066;-83
2023/06/17 10:24:52;;;;;;;10.63;4.85;;;;;;;;;;4303215;33;20087;-82
2023/06/17 10:27:20;;;;;;;9.30;4.60;;;;;;;;;;4298982;33;20095;-80
2023/06/17 10:29:47;;;;;;;8.15;4.93;;;;;;;;;;4329709;33;20106;-80
2023/06/17 10:32:20;;;;;;;5.20;4.70;;;;;;;;;;4321110;33;20090;-79
2023/06/17 10:35:18;;;;;;;9.88;4.75;;;;;;;;;;4326674;33;20329;-81
2023/06/17 10:37:47;;;;;;;9.35;5.00;;;;;;;;;;4293768;33;20037;-79
2023/06/17 10:40:19;;;;;;;4.97;4.55;;;;;;;;;;4294724;33;20092;-79
2023/06/17 10:42:52;;;;;;;6.57;4.03;;;;;;;;;;4271625;33;20068;-80
2023/06/17 10:45:19;;;;;;;6.82;4.12;;;;;;;;;;4275005;33;20045;-79
2023/06/17 10:47:45;;;;;;;9.45;4.65;;;;;;;;;;4274777;33;20078;-79
2023/06/17 10:50:14;;;;;;;5.90;4.25;;;;;;;;;;4271998;33;20525;-78
2023/06/17 10:52:40;;;;;;;8.43;4.25;;;;;;;;;;4270721;33;20055;-80
2023/06/17 10:55:09;;;;;;;7.55;4.03;;;;;;;;;;4262877;33;20431;-82
2023/06/17 10:57:35;;;;;;;9.82;4.25;;;;;;;;;;4258949;33;20033;-81
2023/06/17 11:00:08;;;;;;;4.40;4.03;;;;;;;;;;4255905;33;20101;-80
2023/06/17 11:03:04;;;;;;;;;;;;;;;;;;4265777;28;20067;-81
2023/06/17 11:05:37;;;;;;;4.37;3.53;;;;;;;;;;4277313;33;19952;-78
2023/06/17 11:08:04;;;;;;;3.75;3.45;;;;;;;;;;4290777;33;20123;-80
2023/06/17 11:10:31;;;;;;;6.70;3.70;;;;;;;;;;4286999;33;20085;-80
2023/06/17 11:12:57;;;;;;;6.78;4.18;;;;;;;;;;4270032;33;20048;-80
2023/06/17 11:15:24;;;;;;;3.67;3.22;;;;;;;;;;4320813;33;20603;-78
2023/06/17 11:18:00;;;;;;;4.45;4.05;;;;;;;;;;4289633;33;20096;-78
2023/06/17 11:20:27;;;;;;;6.57;3.83;;;;;;;;;;4289214;33;20115;-79
2023/06/17 11:22:54;;;;;;;4.57;4.18;;;;;;;;;;4292744;33;20048;-79
2023/06/17 11:25:20;;;;;;;8.52;4.65;;;;;;;;;;4291166;33;20513;-82
2023/06/17 11:27:46;;;;;;;6.22;4.37;;;;;;;;;;4291088;33;20124;-78
2023/06/17 11:30:13;;;;;;;5.47;4.70;;;;;;;;;;4291261;33;20206;-80
2023/06/17 11:32:40;;;;;;;6.70;4.68;;;;;;;;;;4292577;33;20044;-80
2023/06/17 11:35:07;;;;;;;12.13;4.20;;;;;;;;;;4290617;33;20066;-79
2023/06/17 11:37:36;;;;;;;4.65;4.25;;;;;;;;;;4283709;33;20071;-76
2023/06/17 11:40:06;;;;;;;5.95;4.32;;;;;;;;;;4276205;33;20463;-80
2023/06/17 11:42:32;;;;;;;9.82;4.35;;;;;;;;;;4248036;33;20053;-81
2023/06/17 11:45:06;;;;;;;4.05;3.75;;;;;;;;;;4249387;33;20058;-80
2023/06/17 11:47:33;;;;;;;4.72;3.78;;;;;;;;;;4251902;33;20840;-78
2023/06/17 11:49:59;;;;;;;8.38;4.32;;;;;;;;;;4268750;33;20115;-79
2023/06/17 11:52:25;;;;;;;5.53;4.03;;;;;;;;;;4277999;33;20082;-79
2023/06/17 11:54:54;;;;;;;4.62;3.90;;;;;;;;;;4275491;33;20061;-79
2023/06/17 11:57:21;;;;;;;5.18;4.70;;;;;;;;;;4274838;33;20077;-77
2023/06/17 11:59:47;;;;;;;6.65;4.00;;;;;;;;;;4277247;33;20057;-78
2023/06/17 12:02:15;;;;;;;8.43;5.00;;;;;;;;;;4288607;33;20045;-79
2023/06/17 12:04:45;;;;;;;16.65;5.10;;;;;;;;;;4296510;33;20044;-78
2023/06/17 12:07:12;;;;;;;4.90;3.58;;;;;;;;;;4292319;33;20116;-77
2023/06/17 12:09:48;;;;;;;7.03;4.15;;;;;;;;;;4294434;33;20049;-77
2023/06/17 12:12:24;;;;;;;11.80;4.93;;;;;;;;;;4283961;33;20038;-84
2023/06/17 12:14:55;;;;;;;7.32;3.65;;;;;;;;;;4270338;33;20053;-82
2023/06/17 12:17:22;;;;;;;6.47;3.95;;;;;;;;;;4282375;33;20075;-81
2023/06/17 12:19:49;;;;;;;5.68;4.00;;;;;;;;;;4277707;33;20781;-78
2023/06/17 12:22:21;;;;;;;8.90;3.72;;;;;;;;;;4250552;33;20264;-83
2023/06/17 12:24:47;;;;;;;4.87;4.32;;;;;;;;;;4248894;33;20067;-80
2023/06/17 12:27:13;;;;;;;4.70;3.92;;;;;;;;;;4250151;33;20050;-81
2023/06/17 12:29:39;;;;;;;4.87;3.62;;;;;;;;;;4251340;33;20447;-79
2023/06/17 12:32:06;;;;;;;6.72;4.57;;;;;;;;;;4245493;33;20194;-83
2023/06/17 12:34:32;;;;;;;11.10;4.15;;;;;;;;;;4276213;33;20628;-83
2023/06/17 12:37:00;;;;;;;10.25;4.22;;;;;;;;;;4306564;33;20128;-84
2023/06/17 12:39:27;;;;;;;4.62;4.22;;;;;;;;;;4306591;33;20071;-79
2023/06/17 12:41:53;;;;;;;6.57;3.92;;;;;;;;;;4307312;33;20106;-77
2023/06/17 12:44:20;;;;;;;6.40;3.90;;;;;;;;;;4279621;33;20096;-79
2023/06/17 12:46:47;;;;;;;3.87;3.58;;;;;;;;;;4278769;33;20424;-82
2023/06/17 12:49:13;;;;;;;4.40;3.87;;;;;;;;;;4265719;33;20058;-80
2023/06/17 12:51:39;;;;;;;11.38;3.65;;;;;;;;;;4263016;33;20381;-83
2023/06/17 12:54:06;;;;;;;4.30;3.30;;;;;;;;;;4265845;33;20127;-81
2023/06/17 12:56:32;;;;;;;5.65;3.37;;;;;;;;;;4274788;33;20045;-85
2023/06/17 12:59:00;;;;;;;4.07;3.70;;;;;;;;;;4278201;33;20061;-84
2023/06/17 13:01:29;;;;;;;4.62;3.75;;;;;;;;;;4281165;33;20092;-81
2023/06/17 13:03:55;;;;;;;6.15;4.03;;;;;;;;;;4292438;33;20073;-79
2023/06/17 13:06:21;;;;;;;3.65;3.35;;;;;;;;;;4292344;33;20076;-80
2023/06/17 13:08:54;;;;;;;5.45;4.30;;;;;;;;;;4295084;33;20049;-79
2023/06/17 13:11:20;;;;;;;5.20;3.87;;;;;;;;;;4290631;33;20174;-78
2023/06/17 13:13:47;;;;;;;5.03;4.47;;;;;;;;;;4293680;33;20061;-78
2023/06/17 13:16:13;;;;;;;5.45;4.12;;;;;;;;;;4289857;33;20341;-76
2023/06/17 13:18:41;;;;;;;14.60;4.10;;;;;;;;;;4293037;33;20090;-79
2023/06/17 13:21:08;;;;;;;10.30;4.50;;;;;;;;;;4291489;33;20494;-80
2023/06/17 13:23:35;;;;;;;6.03;4.03;;;;;;;;;;4286459;33;20052;-82
2023/06/17 13:26:00;;;;;;;4.47;4.07;;;;;;;;;;4293506;33;20467;-82
2023/06/17 13:28:27;;;;;;;5.78;4.30;;;;;;;;;;4293271;33;20112;-83
2023/06/17 13:30:59;;;;;;;8.23;5.62;;;;;;;;;;4292885;33;20029;-86
2023/06/17 13:33:26;;;;;;;11.30;5.30;;;;;;;;;;4292899;33;20115;-81
2023/06/17 13:35:52;;;;;;;8.00;4.40;;;;;;;;;;4292621;33;20045;-78
2023/06/17 13:38:18;;;;;;;4.87;4.40;;;;;;;;;;4290543;33;20402;-83
2023/06/17 13:40:44;;;;;;;5.15;4.25;;;;;;;;;;4294240;33;20073;-83
2023/06/17 13:43:11;;;;;;;5.12;4.25;;;;;;;;;;4293338;33;20428;-84
2023/06/17 13:45:38;;;;;;;5.60;4.20;;;;;;;;;;4285658;33;20041;-86
2023/06/17 13:48:04;;;;;;;3.72;3.42;;;;;;;;;;4287601;33;20378;-85
2023/06/17 13:50:30;;;;;;;5.55;4.12;;;;;;;;;;4280606;33;20093;-82
2023/06/17 13:52:58;;;;;;;5.05;3.50;;;;;;;;;;4279156;33;20061;-80
2023/06/17 13:55:25;;;;;;;6.80;4.12;;;;;;;;;;4279111;33;20107;-86
2023/06/17 13:57:51;;;;;;;7.43;3.35;;;;;;;;;;4273564;33;20058;-85
2023/06/17 14:00:17;;;;;;;5.22;4.72;;;;;;;;;;4267596;33;21543;-84
2023/06/17 14:02:44;;;;;;;4.87;3.95;;;;;;;;;;4268670;33;20061;-86
2023/06/17 14:05:10;;;;;;;4.12;3.72;;;;;;;;;;4260609;33;20152;-84
2023/06/17 14:07:36;;;;;;;7.65;3.67;;;;;;;;;;4268550;33;20071;-86
2023/06/17 14:10:02;;;;;;;5.12;3.72;;;;;;;;;;4237938;33;20054;-85
2023/06/17 14:12:29;;;;;;;9.13;3.55;;;;;;;;;;4238894;33;20064;-86
2023/06/17 14:14:55;;;;;;;3.95;3.62;;;;;;;;;;4234708;33;20168;-82
2023/06/17 14:17:22;;;;;;;3.97;3.53;;;;;;;;;;4242518;33;20062;-84
2023/06/17 14:19:48;;;;;;;3.97;3.50;;;;;;;;;;4226301;33;20110;-81
2023/06/17 14:22:14;;;;;;;8.80;3.62;;;;;;;;;;4228204;33;20207;-86
2023/06/17 14:24:41;;;;;;;5.95;3.10;;;;;;;;;;4235532;33;20083;-85
2023/06/17 14:27:44;;;;;;;3.40;3.05;;;;;;;;;;4235099;33;20035;-83
2023/06/17 14:30:14;;;;;;;3.62;3.33;;;;;;;;;;4217443;34;20059;-84
2023/06/17 14:32:49;;;;;;;9.35;3.47;;;;;;;;;;4237385;33;20076;-86
2023/06/17 14:35:16;;;;;;;4.90;2.78;;;;;;;;;;4254832;33;20084;-87
2023/06/17 14:37:43;;;;;;;3.47;3.20;;;;;;;;;;4245895;33;20056;-86
2023/06/17 14:40:11;;;;;;;5.15;3.70;;;;;;;;;;4239268;33;20098;-83
2023/06/17 14:42:44;;;;;;;4.93;3.45;;;;;;;;;;4256508;33;20064;-85
2023/06/17 14:45:11;;;;;;;3.65;3.35;;;;;;;;;;4260336;33;20413;-82
2023/06/17 14:47:39;;;;;;;4.00;3.30;;;;;;;;;;4263863;33;20102;-87
2023/06/17 14:50:06;;;;;;;9.77;2.90;;;;;;;;;;4253854;33;20081;-82
2023/06/17 14:52:32;;;;;;;6.10;3.40;;;;;;;;;;4251036;33;20060;-84
2023/06/17 14:54:58;;;;;;;4.12;3.08;;;;;;;;;;4258300;33;20053;-79
2023/06/17 14:57:25;;;;;;;4.47;3.45;;;;;;;;;;4241899;33;20050;-85
2023/06/17 14:59:51;;;;;;;6.15;3.70;;;;;;;;;;4247231;33;20043;-84
2023/06/17 15:02:24;;;;;;;4.10;3.70;;;;;;;;;;4249203;33;20454;-78
2023/06/17 15:04:50;;;;;;;3.35;3.05;;;;;;;;;;4249706;33;20130;-80
2023/06/17 15:07:16;;;;;;;4.32;3.10;;;;;;;;;;4262049;33;20042;-85
2023/06/17 15:09:43;;;;;;;3.00;2.80;;;;;;;;;;4265033;33;20053;-82
2023/06/17 15:12:12;;;;;;;10.65;7.75;;;;;;;;;;4276693;33;20087;-82
2023/06/17 15:14:40;;;;;;;6.80;3.33;;;;;;;;;;4303581;33;20071;-81
2023/06/17 15:17:06;;;;;;;3.62;3.08;;;;;;;;;;4301318;33;20131;-82
2023/06/17 15:19:33;;;;;;;9.93;5.30;;;;;;;;;;4298301;33;20045;-82
2023/06/17 15:21:59;;;;;;;8.32;5.85;;;;;;;;;;4298120;33;20067;-80
2023/06/17 15:24:25;;;;;;;4.85;3.45;;;;;;;;;;4305724;33;20431;-81
2023/06/17 15:26:52;;;;;;;3.70;3.20;;;;;;;;;;4299044;33;20087;-82
2023/06/17 15:29:17;;;;;;;7.22;3.47;;;;;;;;;;4298679;33;20109;-79
2023/06/17 15:31:51;;;;;;;7.20;3.70;;;;;;;;;;4297608;33;20049;-86
2023/06/17 15:34:17;;;;;;;12.23;2.83;;;;;;;;;;4300991;33;20067;-80
2023/06/17 15:36:43;;;;;;;3.60;3.10;;;;;;;;;;4289499;33;20071;-80
2023/06/17 15:39:25;;;;;;;6.80;3.72;;;;;;;;;;4289700;33;20427;-76
2023/06/17 15:41:52;;;;;;;13.90;3.40;;;;;;;;;;4278509;33;20045;-84
2023/06/17 15:44:19;;;;;;;7.53;3.50;;;;;;;;;;4232908;33;20042;-83
2023/06/17 15:46:46;;;;;;;5.05;3.70;;;;;;;;;;4245394;33;20062;-83
2023/06/17 15:49:18;;;;;;;7.75;4.03;;;;;;;;;;4248949;33;20084;-81
2023/06/17 15:51:45;;;;;;;7.20;4.18;;;;;;;;;;4249283;33;20411;-80
2023/06/17 15:54:11;;;;;;;6.15;4.22;;;;;;;;;;4206373;34;20454;-80
2023/06/17 15:56:38;;;;;;;9.90;4.25;;;;;;;;;;4220691;34;20184;-84
2023/06/17 15:59:04;;;;;;;9.13;3.87;;;;;;;;;;4221320;34;20865;-84
2023/06/17 16:01:31;;;;;;;9.20;3.80;;;;;;;;;;4221207;33;20061;-80
2023/06/17 16:03:57;;;;;;;6.60;3.72;;;;;;;;;;4235923;33;20079;-80
2023/06/17 16:06:24;;;;;;;10.55;3.72;;;;;;;;;;4235321;33;20206;-82
2023/06/17 16:08:51;;;;;;;5.55;4.30;;;;;;;;;;4222920;33;20090;-79
2023/06/17 16:11:18;;;;;;;8.40;5.00;;;;;;;;;;4237877;33;20094;-76
2023/06/17 16:13:44;;;;;;;8.75;4.65;;;;;;;;;;4236919;33;20390;-84
2023/06/17 16:16:10;;;;;;;7.55;4.72;;;;;;;;;;4251814;33;20109;-83
2023/06/17 16:18:36;;;;;;;7.68;4.60;;;;;;;;;;4253227;33;20054;-80
2023/06/17 16:21:03;;;;;;;11.77;4.70;;;;;;;;;;4257388;33;20037;-83
2023/06/17 16:23:29;;;;;;;5.25;4.60;;;;;;;;;;4251867;33;20069;-78
2023/06/17 16:25:55;;;;;;;6.57;5.90;;;;;;;;;;4262208;33;20084;-84
2023/06/17 16:28:21;;;;;;;8.65;5.07;;;;;;;;;;4263053;33;20083;-82
2023/06/17 16:30:48;;;;;;;5.95;5.40;;;;;;;;;;4270814;33;20048;-82
2023/06/17 16:33:14;;;;;;;8.65;5.65;;;;;;;;;;4309720;33;20375;-84
2023/06/17 16:35:40;;;;;;;14.82;5.30;;;;;;;;;;4308652;33;20063;-83
2023/06/17 16:38:07;;;;;;;8.43;6.68;;;;;;;;;;4287433;33;20037;-77